Time;durP1;ratioP1;P1;durP2;ratioP2;P2;SDS_P1;SDS_P2;PMS_P1;PMS_P2;Temp;Humidity;BMP_temperature;BMP_pressure;BME280_temperature;BME280_humidity;BME280_pressure;Samples;Min_cycle;Max_cycle;Signal;HPM_P1;HPM_P2
2022/06/20 00:00:30;;;;;;;2.25;1.50;;;;;;;;;;4562291;27;20037;-70
2022/06/20 00:02:49;;;;;;;1.83;1.20;;;;;;;;;;4560523;28;20103;-70
2022/06/20 00:05:01;;;;;;;1.83;1.23;;;;;;;;;;4570792;28;20036;-71
2022/06/20 00:07:12;;;;;;;1.77;1.20;;;;;;;;;;4565794;28;20289;-71
2022/06/20 00:09:22;;;;;;;1.50;1.00;;;;;;;;;;4566542;28;20068;-70
2022/06/20 00:11:40;;;;;;;2.03;1.00;;;;;;;;;;4561347;28;20429;-70
2022/06/20 00:13:54;;;;;;;1.92;1.10;;;;;;;;;;4567961;28;20355;-71
2022/06/20 00:16:04;;;;;;;2.63;1.20;;;;;;;;;;4570969;28;20036;-70
2022/06/20 00:18:14;;;;;;;1.15;0.90;;;;;;;;;;4572027;28;20369;-70
2022/06/20 00:20:25;;;;;;;2.33;1.50;;;;;;;;;;4571999;28;20043;-70
2022/06/20 00:22:36;;;;;;;1.70;1.10;;;;;;;;;;4568322;27;20028;-71
2022/06/20 00:24:46;;;;;;;2.45;1.17;;;;;;;;;;4569016;28;20126;-70
2022/06/20 00:26:57;;;;;;;1.98;1.05;;;;;;;;;;4570127;28;20040;-70
2022/06/20 00:29:07;;;;;;;1.55;1.20;;;;;;;;;;4553726;28;20098;-70
2022/06/20 00:31:18;;;;;;;1.90;1.10;;;;;;;;;;4568918;27;20033;-70
2022/06/20 00:33:28;;;;;;;1.92;1.20;;;;;;;;;;4571692;28;20024;-70
2022/06/20 00:35:39;;;;;;;2.00;1.20;;;;;;;;;;4569328;28;20036;-70
2022/06/20 00:37:53;;;;;;;1.50;1.00;;;;;;;;;;4567168;28;20630;-71
2022/06/20 00:40:13;;;;;;;1.60;0.85;;;;;;;;;;4578590;28;21087;-70
2022/06/20 00:42:24;;;;;;;2.50;1.20;;;;;;;;;;4571377;28;20127;-70
2022/06/20 00:44:37;;;;;;;1.23;1.05;;;;;;;;;;4567939;28;20114;-70
2022/06/20 00:46:56;;;;;;;1.55;1.10;;;;;;;;;;4571816;28;20586;-70
2022/06/20 00:49:28;;;;;;;1.42;0.95;;;;;;;;;;4567404;28;20355;-70
2022/06/20 00:51:52;;;;;;;1.67;1.20;;;;;;;;;;4569960;28;20626;-70
2022/06/20 00:54:11;;;;;;;2.17;1.10;;;;;;;;;;4568086;28;20024;-70
2022/06/20 00:56:30;;;;;;;1.65;1.08;;;;;;;;;;4571463;28;20052;-70
2022/06/20 00:58:48;;;;;;;2.08;1.23;;;;;;;;;;4568957;28;20037;-71
2022/06/20 01:00:58;;;;;;;2.05;1.10;;;;;;;;;;4568891;28;20059;-71
2022/06/20 01:03:15;;;;;;;1.58;1.05;;;;;;;;;;4569151;28;20552;-70
2022/06/20 01:05:38;;;;;;;2.05;1.10;;;;;;;;;;4568491;28;20033;-70
2022/06/20 01:07:55;;;;;;;1.73;1.00;;;;;;;;;;4576586;28;20028;-70
2022/06/20 01:10:06;;;;;;;1.50;1.02;;;;;;;;;;4566298;28;20665;-70
2022/06/20 01:12:19;;;;;;;1.33;1.02;;;;;;;;;;4570769;28;20055;-70
2022/06/20 01:14:35;;;;;;;2.85;1.00;;;;;;;;;;4570581;28;20044;-70
2022/06/20 01:16:45;;;;;;;2.30;1.10;;;;;;;;;;4569426;28;20058;-70
2022/06/20 01:19:00;;;;;;;3.13;1.10;;;;;;;;;;4565371;27;21725;-70
2022/06/20 01:21:14;;;;;;;1.50;1.10;;;;;;;;;;4568486;28;20064;-70
2022/06/20 01:23:38;;;;;;;1.63;0.95;;;;;;;;;;4567961;28;20221;-71
2022/06/20 01:25:54;;;;;;;1.90;1.00;;;;;;;;;;4557988;28;20033;-71
2022/06/20 01:28:09;;;;;;;2.03;1.00;;;;;;;;;;4566731;28;20043;-70
2022/06/20 01:30:23;;;;;;;2.15;1.10;;;;;;;;;;4566765;28;20043;-70
2022/06/20 01:32:34;;;;;;;1.20;1.00;;;;;;;;;;4567884;28;20016;-70
2022/06/20 01:34:44;;;;;;;1.73;1.05;;;;;;;;;;4565659;28;20060;-70
2022/06/20 01:39:27;;;;;;;1.70;1.10;;;;;;;;;;4573282;28;20046;-71
2022/06/20 01:44:06;;;;;;;1.77;1.13;;;;;;;;;;4564966;28;20110;-70
2022/06/20 01:46:17;;;;;;;1.50;1.10;;;;;;;;;;4563563;28;20094;-70
2022/06/20 01:48:29;;;;;;;1.45;1.00;;;;;;;;;;4566647;28;20426;-70
2022/06/20 01:50:42;;;;;;;1.77;1.30;;;;;;;;;;4567297;28;20113;-71
2022/06/20 01:52:53;;;;;;;1.42;1.10;;;;;;;;;;4564824;28;20458;-70
2022/06/20 01:55:06;;;;;;;1.55;1.00;;;;;;;;;;4565640;28;20477;-69
2022/06/20 01:57:17;;;;;;;1.40;1.20;;;;;;;;;;4565304;28;20589;-70
2022/06/20 01:59:35;;;;;;;2.97;1.25;;;;;;;;;;4563134;28;20028;-71
2022/06/20 02:01:46;;;;;;;2.03;1.20;;;;;;;;;;4565235;28;20032;-70
2022/06/20 02:03:57;;;;;;;1.20;1.10;;;;;;;;;;4563076;28;20108;-70
2022/06/20 02:06:09;;;;;;;1.95;1.40;;;;;;;;;;4567465;28;20514;-70
2022/06/20 02:08:20;;;;;;;1.60;1.20;;;;;;;;;;4563052;28;20024;-71
2022/06/20 02:10:56;;;;;;;1.60;1.20;;;;;;;;;;4567845;28;20029;-70
2022/06/20 02:13:07;;;;;;;2.17;1.40;;;;;;;;;;4560065;28;20583;-71
2022/06/20 02:15:21;;;;;;;2.10;1.17;;;;;;;;;;4537743;28;20021;-70
2022/06/20 02:17:36;;;;;;;1.63;1.23;;;;;;;;;;4566282;28;20063;-70
2022/06/20 02:19:49;;;;;;;2.53;1.30;;;;;;;;;;4564983;28;20028;-70
2022/06/20 02:22:04;;;;;;;2.55;1.60;;;;;;;;;;4567166;28;20036;-71
2022/06/20 02:24:16;;;;;;;3.08;1.60;;;;;;;;;;4565228;28;20082;-71
2022/06/20 02:26:27;;;;;;;2.75;1.60;;;;;;;;;;4566759;27;20110;-71
2022/06/20 02:28:54;;;;;;;2.20;1.40;;;;;;;;;;4564469;28;20055;-71
2022/06/20 02:31:06;;;;;;;2.67;1.55;;;;;;;;;;4564177;28;20032;-70
2022/06/20 02:33:22;;;;;;;2.58;1.30;;;;;;;;;;4563677;28;20031;-70
2022/06/20 02:35:33;;;;;;;1.20;1.10;;;;;;;;;;4549403;28;20067;-70
2022/06/20 02:37:44;;;;;;;1.50;1.20;;;;;;;;;;4563257;28;20792;-70
2022/06/20 02:40:07;;;;;;;1.63;1.20;;;;;;;;;;4562784;28;20144;-70
2022/06/20 02:42:24;;;;;;;1.67;1.15;;;;;;;;;;4566778;28;20029;-70
2022/06/20 02:44:35;;;;;;;2.42;1.20;;;;;;;;;;4549799;28;20156;-70
2022/06/20 02:46:47;;;;;;;2.65;1.30;;;;;;;;;;4572468;28;20333;-70
2022/06/20 02:49:01;;;;;;;1.85;1.17;;;;;;;;;;4564906;28;20209;-70
2022/06/20 02:51:20;;;;;;;1.83;1.27;;;;;;;;;;4566609;28;20090;-70
2022/06/20 02:53:40;;;;;;;2.17;1.20;;;;;;;;;;4549617;28;20036;-70
2022/06/20 02:55:51;;;;;;;1.30;1.20;;;;;;;;;;4564180;28;20029;-71
2022/06/20 02:58:06;;;;;;;2.45;1.38;;;;;;;;;;4568264;28;20037;-70
2022/06/20 03:00:21;;;;;;;2.75;1.30;;;;;;;;;;4566322;28;20638;-71
2022/06/20 03:02:35;;;;;;;1.17;1.08;;;;;;;;;;4565394;28;20121;-70
2022/06/20 03:04:46;;;;;;;1.83;1.23;;;;;;;;;;4566970;28;20071;-71
2022/06/20 03:07:00;;;;;;;2.13;1.40;;;;;;;;;;4562458;28;20043;-70
2022/06/20 03:09:13;;;;;;;2.60;1.40;;;;;;;;;;4565557;28;20697;-70
2022/06/20 03:11:26;;;;;;;1.92;1.48;;;;;;;;;;4565420;28;20044;-71
2022/06/20 03:13:37;;;;;;;2.53;1.60;;;;;;;;;;4561531;28;20994;-71
2022/06/20 03:15:49;;;;;;;2.72;1.50;;;;;;;;;;4562545;28;20115;-70
2022/06/20 03:18:00;;;;;;;1.67;1.27;;;;;;;;;;4565535;28;20037;-70
2022/06/20 03:20:13;;;;;;;1.75;1.20;;;;;;;;;;4563325;28;20036;-71
2022/06/20 03:22:35;;;;;;;1.77;1.20;;;;;;;;;;4562307;28;20056;-70
2022/06/20 03:24:46;;;;;;;2.22;1.30;;;;;;;;;;4550362;28;20076;-71
2022/06/20 03:26:57;;;;;;;1.65;1.20;;;;;;;;;;4563329;28;20024;-70
2022/06/20 03:29:13;;;;;;;1.50;1.15;;;;;;;;;;4572719;28;20036;-71
2022/06/20 03:31:23;;;;;;;2.97;1.70;;;;;;;;;;4566346;27;20044;-71
2022/06/20 03:33:34;;;;;;;2.17;1.30;;;;;;;;;;4564666;28;20258;-71
2022/06/20 03:35:54;;;;;;;2.17;1.33;;;;;;;;;;4564082;28;20397;-70
2022/06/20 03:38:07;;;;;;;1.77;1.50;;;;;;;;;;4565186;27;20874;-71
2022/06/20 03:40:17;;;;;;;1.83;1.50;;;;;;;;;;4562495;28;20024;-71
2022/06/20 03:42:28;;;;;;;1.60;1.50;;;;;;;;;;4563836;28;20093;-70
2022/06/20 03:44:42;;;;;;;2.67;1.50;;;;;;;;;;4562282;28;20052;-71
2022/06/20 03:46:57;;;;;;;1.80;1.50;;;;;;;;;;4563808;28;20028;-71
2022/06/20 03:49:27;;;;;;;2.38;1.73;;;;;;;;;;4565213;28;20939;-71
2022/06/20 03:51:47;;;;;;;1.63;1.48;;;;;;;;;;4544115;28;20131;-70
2022/06/20 03:54:08;;;;;;;2.55;1.88;;;;;;;;;;4562319;28;20031;-70
2022/06/20 03:56:23;;;;;;;2.40;1.90;;;;;;;;;;4565622;28;20040;-71
2022/06/20 03:58:38;;;;;;;1.60;1.48;;;;;;;;;;4564204;28;20131;-70
2022/06/20 04:00:57;;;;;;;2.65;1.95;;;;;;;;;;4556649;28;20128;-70
2022/06/20 04:03:29;;;;;;;2.70;1.50;;;;;;;;;;4563273;28;20036;-70
2022/06/20 04:05:49;;;;;;;3.10;1.90;;;;;;;;;;4563059;28;20086;-70
2022/06/20 04:08:07;;;;;;;3.45;1.90;;;;;;;;;;4564237;28;20132;-70
2022/06/20 04:13:03;;;;;;;2.47;1.70;;;;;;;;;;4562802;28;20104;-70
2022/06/20 04:15:26;;;;;;;2.42;1.50;;;;;;;;;;4561568;28;20037;-69
2022/06/20 04:20:19;;;;;;;1.83;1.35;;;;;;;;;;4563031;28;20036;-70
2022/06/20 04:22:33;;;;;;;1.50;1.35;;;;;;;;;;4564524;28;20032;-71
2022/06/20 04:25:00;;;;;;;1.63;1.30;;;;;;;;;;4562782;28;20041;-70
2022/06/20 04:27:17;;;;;;;2.78;1.48;;;;;;;;;;4561452;28;20752;-70
2022/06/20 04:29:36;;;;;;;2.20;1.20;;;;;;;;;;4561925;28;20081;-71
2022/06/20 04:31:51;;;;;;;2.30;1.30;;;;;;;;;;4551710;28;20044;-71
2022/06/20 04:34:11;;;;;;;1.55;1.10;;;;;;;;;;4562191;28;20047;-70
2022/06/20 04:36:52;;;;;;;2.25;1.33;;;;;;;;;;4563502;28;20102;-70
2022/06/20 04:39:16;;;;;;;2.22;1.20;;;;;;;;;;4562370;28;20047;-70
2022/06/20 04:41:44;;;;;;;1.48;1.00;;;;;;;;;;4565319;28;20114;-70
2022/06/20 04:44:00;;;;;;;1.23;0.98;;;;;;;;;;4565325;28;20040;-70
2022/06/20 04:46:20;;;;;;;1.45;0.93;;;;;;;;;;4571857;28;20032;-70
2022/06/20 04:48:31;;;;;;;1.40;0.85;;;;;;;;;;4562842;28;20033;-70
2022/06/20 04:50:44;;;;;;;1.58;1.10;;;;;;;;;;4559818;28;20036;-71
2022/06/20 04:52:59;;;;;;;2.65;1.10;;;;;;;;;;4565891;28;20117;-70
2022/06/20 04:55:14;;;;;;;2.00;1.00;;;;;;;;;;4565806;28;20755;-70
2022/06/20 04:57:27;;;;;;;1.92;1.10;;;;;;;;;;4565440;28;20531;-70
2022/06/20 04:59:37;;;;;;;1.55;1.02;;;;;;;;;;4557478;28;20024;-70
2022/06/20 05:01:48;;;;;;;2.67;0.93;;;;;;;;;;4566044;28;20083;-71
2022/06/20 05:04:17;;;;;;;1.98;1.10;;;;;;;;;;4566312;28;20477;-70
2022/06/20 05:06:29;;;;;;;1.67;1.00;;;;;;;;;;4566269;28;20126;-71
2022/06/20 05:08:45;;;;;;;2.22;1.20;;;;;;;;;;4563529;28;20037;-70
2022/06/20 05:11:00;;;;;;;1.47;0.80;;;;;;;;;;4565433;28;20035;-71
2022/06/20 05:13:20;;;;;;;1.52;0.80;;;;;;;;;;4568305;28;21232;-70
2022/06/20 05:15:33;;;;;;;1.85;0.93;;;;;;;;;;4574504;27;20097;-70
2022/06/20 05:17:46;;;;;;;1.70;0.80;;;;;;;;;;4555467;28;20052;-70
2022/06/20 05:20:11;;;;;;;1.58;0.95;;;;;;;;;;4567605;28;20753;-71
2022/06/20 05:22:40;;;;;;;1.30;0.90;;;;;;;;;;4567560;28;20675;-70
2022/06/20 05:24:52;;;;;;;2.17;0.98;;;;;;;;;;4566382;28;20078;-70
2022/06/20 05:27:09;;;;;;;2.15;1.00;;;;;;;;;;4574077;28;20063;-71
2022/06/20 05:29:25;;;;;;;1.85;0.95;;;;;;;;;;4565432;28;20647;-71
2022/06/20 05:31:49;;;;;;;2.00;0.80;;;;;;;;;;4568506;28;20786;-71
2022/06/20 05:34:07;;;;;;;3.25;0.98;;;;;;;;;;4568498;28;20035;-71
2022/06/20 05:37:09;;;;;;;2.38;0.98;;;;;;;;;;4563611;28;20032;-71
2022/06/20 05:39:44;;;;;;;1.73;0.90;;;;;;;;;;4560240;28;20040;-71
2022/06/20 05:41:55;;;;;;;1.52;0.85;;;;;;;;;;4564620;28;20509;-70
2022/06/20 05:44:10;;;;;;;2.33;0.93;;;;;;;;;;4563087;27;20185;-70
2022/06/20 05:46:27;;;;;;;1.65;0.80;;;;;;;;;;4564851;28;20630;-70
2022/06/20 05:48:47;;;;;;;2.45;0.98;;;;;;;;;;4563441;27;20041;-71
2022/06/20 05:51:00;;;;;;;1.48;0.80;;;;;;;;;;4572455;28;20031;-71
2022/06/20 05:53:17;;;;;;;2.30;0.80;;;;;;;;;;4562138;28;20067;-70
2022/06/20 05:55:28;;;;;;;;;;;;;;;;;;4563838;28;20666;-70
2022/06/20 05:57:40;;;;;;;1.63;0.82;;;;;;;;;;4563771;28;19953;-71
2022/06/20 06:00:21;;;;;;;1.30;0.75;;;;;;;;;;4563690;28;20036;-70
2022/06/20 06:02:53;;;;;;;1.83;0.90;;;;;;;;;;4563059;28;20627;-70
2022/06/20 06:05:06;;;;;;;1.75;0.90;;;;;;;;;;4565928;27;20036;-70
2022/06/20 06:07:26;;;;;;;1.98;1.27;;;;;;;;;;4566032;28;20040;-71
2022/06/20 06:09:48;;;;;;;2.10;0.93;;;;;;;;;;4562466;28;20036;-71
2022/06/20 06:12:04;;;;;;;1.88;1.00;;;;;;;;;;4566117;28;20563;-70
2022/06/20 06:14:23;;;;;;;1.52;1.00;;;;;;;;;;4565542;28;20059;-70
2022/06/20 06:16:51;;;;;;;2.72;1.15;;;;;;;;;;4564409;28;20062;-70
2022/06/20 06:19:04;;;;;;;;;;;;;;;;;;4563452;28;20048;-70
2022/06/20 06:21:15;;;;;;;2.13;1.15;;;;;;;;;;4562902;28;19920;-70
2022/06/20 06:23:25;;;;;;;2.15;1.25;;;;;;;;;;4563498;28;20480;-70
2022/06/20 06:25:38;;;;;;;1.27;0.95;;;;;;;;;;4564189;28;20039;-71
2022/06/20 06:27:51;;;;;;;2.85;1.20;;;;;;;;;;4562785;28;20311;-70
2022/06/20 06:30:10;;;;;;;2.58;1.17;;;;;;;;;;4560919;28;20613;-70
2022/06/20 06:32:28;;;;;;;2.78;1.33;;;;;;;;;;4565041;28;20285;-70
2022/06/20 06:34:43;;;;;;;2.67;1.50;;;;;;;;;;4570308;28;20147;-70
2022/06/20 06:36:57;;;;;;;2.78;1.60;;;;;;;;;;4560056;28;20032;-69
2022/06/20 06:39:24;;;;;;;2.13;1.30;;;;;;;;;;4564175;28;20036;-70
2022/06/20 06:41:39;;;;;;;1.80;1.20;;;;;;;;;;4572878;28;20036;-70
2022/06/20 06:43:51;;;;;;;2.40;1.35;;;;;;;;;;4572245;28;20050;-69
2022/06/20 06:46:02;;;;;;;2.13;1.13;;;;;;;;;;4549213;28;20123;-70
2022/06/20 06:48:17;;;;;;;1.98;0.90;;;;;;;;;;4563376;27;20042;-69
2022/06/20 06:50:36;;;;;;;1.65;1.13;;;;;;;;;;4557381;28;20021;-69
2022/06/20 06:53:01;;;;;;;2.78;1.13;;;;;;;;;;4566577;28;20131;-69
2022/06/20 06:55:21;;;;;;;2.17;1.10;;;;;;;;;;4572627;28;20120;-70
2022/06/20 06:57:34;;;;;;;1.83;1.10;;;;;;;;;;4561043;28;20066;-68
2022/06/20 06:59:51;;;;;;;1.55;0.80;;;;;;;;;;4563127;28;20036;-69
2022/06/20 07:02:03;;;;;;;2.15;1.00;;;;;;;;;;4555817;28;20033;-70
2022/06/20 07:04:23;;;;;;;2.03;0.80;;;;;;;;;;4564111;28;20230;-70
2022/06/20 07:06:42;;;;;;;1.92;0.80;;;;;;;;;;4565371;28;20543;-70
2022/06/20 07:09:01;;;;;;;1.65;0.85;;;;;;;;;;4562544;28;20561;-70
2022/06/20 07:11:21;;;;;;;1.95;0.85;;;;;;;;;;4568959;27;20569;-69
2022/06/20 07:13:52;;;;;;;1.67;0.80;;;;;;;;;;4555637;28;20039;-69
2022/06/20 07:16:05;;;;;;;1.33;0.70;;;;;;;;;;4562806;28;20036;-69
2022/06/20 07:18:38;;;;;;;1.77;0.80;;;;;;;;;;4564717;28;20040;-69
2022/06/20 07:20:50;;;;;;;1.60;0.80;;;;;;;;;;4563517;28;20967;-68
2022/06/20 07:23:02;;;;;;;1.63;1.00;;;;;;;;;;4562012;28;20059;-69
2022/06/20 07:25:30;;;;;;;1.55;0.60;;;;;;;;;;4562728;27;20772;-68
2022/06/20 07:27:44;;;;;;;1.63;0.80;;;;;;;;;;4562459;27;20700;-69
2022/06/20 07:30:01;;;;;;;2.38;0.68;;;;;;;;;;4565747;28;20028;-69
2022/06/20 07:32:15;;;;;;;1.75;0.70;;;;;;;;;;4562951;28;20040;-69
2022/06/20 07:34:37;;;;;;;1.70;0.80;;;;;;;;;;4561587;28;20032;-68
2022/06/20 07:36:51;;;;;;;2.63;0.90;;;;;;;;;;4564739;28;20035;-68
2022/06/20 07:39:16;;;;;;;2.00;0.90;;;;;;;;;;4560296;28;20037;-69
2022/06/20 07:41:32;;;;;;;3.00;0.90;;;;;;;;;;4562416;28;20043;-69
2022/06/20 07:43:50;;;;;;;2.00;0.80;;;;;;;;;;4562304;28;20040;-69
2022/06/20 07:46:07;;;;;;;1.67;0.80;;;;;;;;;;4563499;28;20032;-69
2022/06/20 07:48:21;;;;;;;2.08;0.80;;;;;;;;;;4564918;28;20025;-69
2022/06/20 07:50:39;;;;;;;1.42;0.80;;;;;;;;;;4562659;28;20098;-67
2022/06/20 07:53:07;;;;;;;1.60;0.60;;;;;;;;;;4564127;28;20282;-69
2022/06/20 07:55:21;;;;;;;2.25;0.80;;;;;;;;;;4561026;28;20835;-68
2022/06/20 07:57:45;;;;;;;2.15;0.88;;;;;;;;;;4563856;28;20075;-68
2022/06/20 08:00:14;;;;;;;1.70;0.70;;;;;;;;;;4563030;27;20169;-68
2022/06/20 08:02:34;;;;;;;1.08;0.63;;;;;;;;;;4571563;28;20057;-68
2022/06/20 08:04:47;;;;;;;1.98;0.85;;;;;;;;;;4564751;28;20079;-68
2022/06/20 08:07:24;;;;;;;1.73;0.80;;;;;;;;;;4562323;28;20613;-69
2022/06/20 08:09:50;;;;;;;1.52;0.80;;;;;;;;;;4551102;28;20234;-69
2022/06/20 08:12:09;;;;;;;2.58;1.10;;;;;;;;;;4565763;28;20039;-69
2022/06/20 08:14:44;;;;;;;2.20;0.95;;;;;;;;;;4564367;28;20449;-69
2022/06/20 08:17:04;;;;;;;2.03;0.95;;;;;;;;;;4562811;28;20043;-70
2022/06/20 08:19:14;;;;;;;2.08;1.20;;;;;;;;;;4545536;28;20090;-69
2022/06/20 08:21:26;;;;;;;2.28;0.90;;;;;;;;;;4561929;27;20094;-68
2022/06/20 08:23:46;;;;;;;1.73;1.13;;;;;;;;;;4562336;28;20512;-69
2022/06/20 08:26:00;;;;;;;2.08;1.10;;;;;;;;;;4561733;28;20036;-68
2022/06/20 08:28:11;;;;;;;2.55;1.00;;;;;;;;;;4563558;28;20041;-68
2022/06/20 08:30:50;;;;;;;2.75;1.20;;;;;;;;;;4564040;28;20147;-68
2022/06/20 08:33:00;;;;;;;1.75;1.10;;;;;;;;;;4564286;28;20078;-69
2022/06/20 08:35:27;;;;;;;1.77;0.90;;;;;;;;;;4565231;28;20142;-68
2022/06/20 08:37:40;;;;;;;;;;;;;;;;;;4568109;28;21216;-68
2022/06/20 08:39:59;;;;;;;1.83;0.93;;;;;;;;;;4565986;28;20030;-68
2022/06/20 08:42:43;;;;;;;1.75;0.98;;;;;;;;;;4567468;28;20020;-68
2022/06/20 08:45:00;;;;;;;2.50;1.00;;;;;;;;;;4565229;28;21044;-68
2022/06/20 08:47:38;;;;;;;2.83;1.20;;;;;;;;;;4573828;28;20044;-67
2022/06/20 08:50:03;;;;;;;2.25;1.30;;;;;;;;;;4564046;28;20040;-68
2022/06/20 08:53:02;;;;;;;3.28;1.20;;;;;;;;;;4564697;28;20075;-69
2022/06/20 08:55:15;;;;;;;2.92;1.40;;;;;;;;;;4560382;28;20051;-67
2022/06/20 08:57:45;;;;;;;3.00;1.40;;;;;;;;;;4565601;28;20532;-68
2022/06/20 09:00:32;;;;;;;2.60;1.60;;;;;;;;;;4563864;28;20078;-68
2022/06/20 09:03:20;;;;;;;2.67;1.42;;;;;;;;;;4548761;28;20649;-68
2022/06/20 09:05:55;;;;;;;2.65;1.50;;;;;;;;;;4566218;28;20032;-67
2022/06/20 09:08:22;;;;;;;2.88;1.60;;;;;;;;;;4565278;28;20040;-68
2022/06/20 09:10:32;;;;;;;;;;;;;;;;;;4566469;28;20847;-68
2022/06/20 09:13:13;;;;;;;1.88;1.40;;;;;;;;;;4568806;28;19919;-68
2022/06/20 09:15:38;;;;;;;2.67;1.55;;;;;;;;;;4564775;28;20579;-67
2022/06/20 09:18:18;;;;;;;3.28;1.70;;;;;;;;;;4564703;28;20097;-68
2022/06/20 09:20:39;;;;;;;2.58;1.70;;;;;;;;;;4567198;28;20043;-68
2022/06/20 09:23:17;;;;;;;2.45;1.52;;;;;;;;;;4563506;28;20041;-68
2022/06/20 09:25:40;;;;;;;2.70;1.60;;;;;;;;;;4565054;27;20037;-68
2022/06/20 09:28:25;;;;;;;2.30;1.40;;;;;;;;;;4562569;28;20036;-68
2022/06/20 09:30:42;;;;;;;1.70;1.20;;;;;;;;;;4563884;28;20044;-69
2022/06/20 09:33:01;;;;;;;2.17;1.48;;;;;;;;;;4564463;28;20960;-68
2022/06/20 09:35:42;;;;;;;2.35;1.38;;;;;;;;;;4565697;27;20054;-68
2022/06/20 09:38:38;;;;;;;2.83;1.30;;;;;;;;;;4563915;28;20032;-68
2022/06/20 09:40:57;;;;;;;2.33;1.33;;;;;;;;;;4557616;28;20049;-68
2022/06/20 09:43:13;;;;;;;1.50;1.00;;;;;;;;;;4562476;28;20036;-68
2022/06/20 09:45:38;;;;;;;2.30;1.40;;;;;;;;;;4563263;28;20040;-68
2022/06/20 09:48:08;;;;;;;1.65;1.00;;;;;;;;;;4565826;28;20040;-68
2022/06/20 09:50:32;;;;;;;1.55;0.93;;;;;;;;;;4563876;28;20518;-68
2022/06/20 09:53:10;;;;;;;1.92;0.98;;;;;;;;;;4564380;28;20114;-68
2022/06/20 09:55:20;;;;;;;1.98;0.90;;;;;;;;;;4565363;28;20047;-68
2022/06/20 09:58:03;;;;;;;1.88;1.05;;;;;;;;;;4564203;28;20040;-69
2022/06/20 10:00:20;;;;;;;2.60;1.00;;;;;;;;;;4565685;27;20501;-68
2022/06/20 10:02:46;;;;;;;2.00;1.10;;;;;;;;;;4563822;27;20028;-68
2022/06/20 10:05:22;;;;;;;1.95;1.30;;;;;;;;;;4563774;28;20142;-68
2022/06/20 10:07:45;;;;;;;1.42;1.10;;;;;;;;;;4565979;28;20044;-68
2022/06/20 10:10:05;;;;;;;1.90;1.40;;;;;;;;;;4572040;28;20024;-69
2022/06/20 10:12:40;;;;;;;1.92;1.60;;;;;;;;;;4549992;28;20037;-68
2022/06/20 10:15:02;;;;;;;2.70;1.63;;;;;;;;;;4567358;28;20575;-68
2022/06/20 10:17:37;;;;;;;3.47;1.50;;;;;;;;;;4562057;27;20119;-68
2022/06/20 10:19:59;;;;;;;3.05;1.55;;;;;;;;;;4563895;28;20078;-68
2022/06/20 10:22:28;;;;;;;2.38;1.40;;;;;;;;;;4562531;28;20048;-68
2022/06/20 10:25:00;;;;;;;1.25;1.15;;;;;;;;;;4562391;28;20578;-68
2022/06/20 10:27:19;;;;;;;2.78;1.20;;;;;;;;;;4563977;28;20712;-68
2022/06/20 10:29:54;;;;;;;1.50;1.00;;;;;;;;;;4564547;27;20043;-68
2022/06/20 10:32:04;;;;;;;2.03;1.10;;;;;;;;;;4566158;28;20028;-68
2022/06/20 10:34:34;;;;;;;2.35;1.20;;;;;;;;;;4563978;27;20020;-68
2022/06/20 10:36:49;;;;;;;1.63;1.00;;;;;;;;;;4565098;28;20334;-68
2022/06/20 10:39:08;;;;;;;1.65;1.05;;;;;;;;;;4572782;28;20048;-68
2022/06/20 10:41:56;;;;;;;1.77;1.00;;;;;;;;;;4563291;28;20033;-68
2022/06/20 10:44:15;;;;;;;1.25;1.00;;;;;;;;;;4563672;28;20102;-68
2022/06/20 10:46:55;;;;;;;1.30;1.10;;;;;;;;;;4563841;28;20039;-68
2022/06/20 10:49:18;;;;;;;1.95;1.27;;;;;;;;;;4561775;28;20057;-68
2022/06/20 10:51:56;;;;;;;1.77;1.27;;;;;;;;;;4563136;28;20936;-68
2022/06/20 10:54:14;;;;;;;2.10;1.20;;;;;;;;;;4564136;28;20067;-68
2022/06/20 10:56:49;;;;;;;1.98;1.00;;;;;;;;;;4547990;28;20087;-68
2022/06/20 10:59:29;;;;;;;1.17;0.82;;;;;;;;;;4565156;28;20039;-68
2022/06/20 11:01:51;;;;;;;1.80;0.93;;;;;;;;;;4567805;28;20033;-68
2022/06/20 11:04:13;;;;;;;1.48;0.95;;;;;;;;;;4549352;28;20036;-68
2022/06/20 11:06:44;;;;;;;1.00;0.85;;;;;;;;;;4571311;28;20845;-68
2022/06/20 11:09:30;;;;;;;1.73;0.90;;;;;;;;;;4566125;27;20127;-68
2022/06/20 11:11:56;;;;;;;0.88;0.80;;;;;;;;;;4529040;27;20511;-67
2022/06/20 11:14:17;;;;;;;1.98;1.10;;;;;;;;;;4561519;28;20032;-68
2022/06/20 11:16:36;;;;;;;1.48;0.95;;;;;;;;;;4564649;28;20040;-67
2022/06/20 11:18:56;;;;;;;0.90;0.75;;;;;;;;;;4563938;28;20032;-68
2022/06/20 11:21:19;;;;;;;1.17;1.00;;;;;;;;;;4564979;28;20046;-67
2022/06/20 11:23:37;;;;;;;1.70;1.10;;;;;;;;;;4561734;28;20821;-68
2022/06/20 11:25:58;;;;;;;1.50;0.90;;;;;;;;;;4565106;28;20035;-67
2022/06/20 11:28:25;;;;;;;1.23;0.80;;;;;;;;;;4561452;28;20119;-68
2022/06/20 11:30:48;;;;;;;1.60;1.00;;;;;;;;;;4563809;28;20039;-67
2022/06/20 11:33:18;;;;;;;1.20;0.95;;;;;;;;;;4562533;28;20039;-67
2022/06/20 11:35:38;;;;;;;1.20;0.85;;;;;;;;;;4561949;28;20036;-67
2022/06/20 11:38:11;;;;;;;1.35;1.00;;;;;;;;;;4563025;28;20028;-67
2022/06/20 11:40:46;;;;;;;0.95;0.85;;;;;;;;;;4571703;28;20032;-67
2022/06/20 11:43:12;;;;;;;0.95;0.85;;;;;;;;;;4561326;28;20045;-67
2022/06/20 11:45:41;;;;;;;2.60;1.15;;;;;;;;;;4562482;28;20106;-67
2022/06/20 11:48:22;;;;;;;1.15;0.93;;;;;;;;;;4567557;28;20607;-67
2022/06/20 11:50:42;;;;;;;1.05;0.60;;;;;;;;;;4564243;28;20135;-67
2022/06/20 11:53:10;;;;;;;0.80;0.80;;;;;;;;;;4560711;28;20390;-67
2022/06/20 11:55:45;;;;;;;2.13;0.88;;;;;;;;;;4562054;28;20449;-67
2022/06/20 11:58:03;;;;;;;1.33;0.93;;;;;;;;;;4548564;28;20067;-67
2022/06/20 12:00:18;;;;;;;1.25;0.80;;;;;;;;;;4560575;28;20025;-68
2022/06/20 12:02:54;;;;;;;2.20;0.95;;;;;;;;;;4570250;28;20031;-68
2022/06/20 12:05:25;;;;;;;1.15;0.90;;;;;;;;;;4563145;28;20036;-67
2022/06/20 12:07:39;;;;;;;1.20;0.90;;;;;;;;;;4563208;28;20701;-68
2022/06/20 12:10:06;;;;;;;2.22;0.90;;;;;;;;;;4560536;28;20162;-67
2022/06/20 12:12:22;;;;;;;1.48;0.73;;;;;;;;;;4563226;28;20594;-68
2022/06/20 12:14:54;;;;;;;1.73;1.10;;;;;;;;;;4565169;27;20048;-67
2022/06/20 12:17:04;;;;;;;2.42;0.95;;;;;;;;;;4561593;28;21045;-68
2022/06/20 12:24:21;;;;;;;1.13;0.90;;;;;;;;;;4564218;28;20116;-68
2022/06/20 12:26:35;;;;;;;2.15;1.00;;;;;;;;;;4559764;28;20132;-68
2022/06/20 12:28:51;;;;;;;1.17;0.88;;;;;;;;;;4546574;28;20025;-68
2022/06/20 12:31:07;;;;;;;1.27;0.88;;;;;;;;;;4560422;28;20576;-67
2022/06/20 12:33:18;;;;;;;1.13;0.90;;;;;;;;;;4564123;27;20155;-68
2022/06/20 12:35:42;;;;;;;1.40;0.90;;;;;;;;;;4561119;28;20480;-68
2022/06/20 12:37:58;;;;;;;1.05;0.90;;;;;;;;;;4571578;28;20070;-68
2022/06/20 12:40:08;;;;;;;1.63;1.10;;;;;;;;;;4561603;28;20041;-67
2022/06/20 12:42:26;;;;;;;1.48;1.10;;;;;;;;;;4562382;28;20028;-67
2022/06/20 12:45:03;;;;;;;1.52;0.80;;;;;;;;;;4548619;28;20045;-67
2022/06/20 12:47:43;;;;;;;2.00;1.10;;;;;;;;;;4561696;28;20036;-68
2022/06/20 12:50:03;;;;;;;1.92;1.10;;;;;;;;;;4561822;28;20028;-68
2022/06/20 12:52:18;;;;;;;2.45;1.20;;;;;;;;;;4571585;28;20036;-68
2022/06/20 12:54:42;;;;;;;1.98;1.08;;;;;;;;;;4561325;28;20041;-68
2022/06/20 12:57:14;;;;;;;1.48;1.00;;;;;;;;;;4562665;28;20142;-68
2022/06/20 13:00:02;;;;;;;1.45;1.00;;;;;;;;;;4563417;28;20036;-68
2022/06/20 13:02:35;;;;;;;2.03;0.90;;;;;;;;;;4563953;28;20908;-68
2022/06/20 13:05:32;;;;;;;2.15;1.00;;;;;;;;;;4561239;28;20036;-68
2022/06/20 13:07:57;;;;;;;2.33;1.20;;;;;;;;;;4563512;28;20601;-67
2022/06/20 13:10:17;;;;;;;2.00;1.00;;;;;;;;;;4562584;28;20078;-68
2022/06/20 13:12:41;;;;;;;1.75;1.13;;;;;;;;;;4563258;28;20118;-67
2022/06/20 13:15:08;;;;;;;1.38;1.00;;;;;;;;;;4565972;28;20045;-67
2022/06/20 13:17:19;;;;;;;1.33;1.10;;;;;;;;;;4564293;28;20112;-68
2022/06/20 13:19:41;;;;;;;1.25;1.00;;;;;;;;;;4565494;28;20040;-68
2022/06/20 13:22:19;;;;;;;1.88;1.08;;;;;;;;;;4566013;28;20040;-68
2022/06/20 13:24:48;;;;;;;1.50;1.08;;;;;;;;;;4572804;28;20162;-68
2022/06/20 13:27:16;;;;;;;2.17;1.00;;;;;;;;;;4567379;28;20044;-68
2022/06/20 13:29:39;;;;;;;1.55;1.13;;;;;;;;;;4569621;28;20024;-67
2022/06/20 13:32:04;;;;;;;1.38;1.02;;;;;;;;;;4564921;28;20044;-68
2022/06/20 13:34:20;;;;;;;2.17;1.25;;;;;;;;;;4555483;28;20044;-68
2022/06/20 13:36:43;;;;;;;1.90;1.00;;;;;;;;;;4565082;28;20111;-68
2022/06/20 13:39:05;;;;;;;2.08;1.10;;;;;;;;;;4564932;27;20039;-68
2022/06/20 13:41:22;;;;;;;1.50;1.00;;;;;;;;;;4567326;28;20075;-68
2022/06/20 13:43:55;;;;;;;1.55;1.20;;;;;;;;;;4565182;27;20039;-68
2022/06/20 13:46:23;;;;;;;1.98;1.23;;;;;;;;;;4565159;28;20527;-67
2022/06/20 13:48:50;;;;;;;1.90;1.10;;;;;;;;;;4562518;28;20634;-67
2022/06/20 13:51:21;;;;;;;2.23;1.33;;;;;;;;;;4564185;28;20102;-67
2022/06/20 13:53:40;;;;;;;1.77;1.20;;;;;;;;;;4564487;27;20128;-67
2022/06/20 13:55:53;;;;;;;1.77;1.13;;;;;;;;;;4563054;28;20035;-68
2022/06/20 13:58:32;;;;;;;2.22;1.40;;;;;;;;;;4564683;28;20033;-67
2022/06/20 14:00:42;;;;;;;1.67;1.40;;;;;;;;;;4564139;28;20058;-67
2022/06/20 14:02:56;;;;;;;2.35;1.20;;;;;;;;;;4563140;27;20036;-67
2022/06/20 14:05:14;;;;;;;2.22;1.20;;;;;;;;;;4563966;28;20046;-68
2022/06/20 14:07:28;;;;;;;2.03;1.20;;;;;;;;;;4566282;28;20068;-68
2022/06/20 14:09:45;;;;;;;1.60;1.20;;;;;;;;;;4564840;28;20032;-68
2022/06/20 14:12:00;;;;;;;2.25;1.30;;;;;;;;;;4563625;28;20086;-68
2022/06/20 14:14:22;;;;;;;1.52;1.10;;;;;;;;;;4565151;28;20028;-68
2022/06/20 14:16:35;;;;;;;2.38;1.10;;;;;;;;;;4563966;28;20024;-68